sensor_id;sensor_type;location;lat;lon;timestamp;pressure;altitude;pressure_sealevel;temperature;humidity
69318;BME280;56457;52.190;4.440;2023-07-31T00:00:30;101125.50;;;17.87;100.00
69318;BME280;56457;52.190;4.440;2023-07-31T00:01:31;101129.34;;;17.78;100.00
69318;BME280;56457;52.190;4.440;2023-07-31T00:02:31;101138.97;;;17.81;100.00
69318;BME280;56457;52.190;4.440;2023-07-31T00:03:31;101138.03;;;17.83;100.00
69318;BME280;56457;52.190;4.440;2023-07-31T00:04:31;101135.41;;;17.82;100.00
69318;BME280;56457;52.190;4.440;2023-07-31T00:05:32;101132.81;;;17.80;100.00
69318;BME280;56457;52.190;4.440;2023-07-31T00:06:32;101138.97;;;17.81;100.00
69318;BME280;56457;52.190;4.440;2023-07-31T00:07:32;101136.25;;;17.82;100.00
69318;BME280;56457;52.190;4.440;2023-07-31T00:08:33;101142.69;;;17.75;100.00
69318;BME280;56457;52.190;4.440;2023-07-31T00:09:33;101150.56;;;17.78;100.00
69318;BME280;56457;52.190;4.440;2023-07-31T00:10:33;101147.97;;;17.77;100.00
69318;BME280;56457;52.190;4.440;2023-07-31T00:11:34;101146.28;;;17.74;100.00
69318;BME280;56457;52.190;4.440;2023-07-31T00:12:34;101152.38;;;17.76;100.00
69318;BME280;56457;52.190;4.440;2023-07-31T00:13:34;101152.44;;;17.74;100.00
69318;BME280;56457;52.190;4.440;2023-07-31T00:14:35;101142.13;;;17.65;100.00
69318;BME280;56457;52.190;4.440;2023-07-31T00:15:35;101145.69;;;17.64;100.00
69318;BME280;56457;52.190;4.440;2023-07-31T00:16:35;101143.16;;;17.60;100.00
69318;BME280;56457;52.190;4.440;2023-07-31T00:17:36;101140.41;;;17.63;100.00
69318;BME280;56457;52.190;4.440;2023-07-31T00:18:36;101147.44;;;17.64;100.00
69318;BME280;56457;52.190;4.440;2023-07-31T00:19:36;101137.81;;;17.61;100.00
69318;BME280;56457;52.190;4.440;2023-07-31T00:20:37;101139.78;;;17.55;100.00
69318;BME280;56457;52.190;4.440;2023-07-31T00:21:37;101139.91;;;17.52;100.00
69318;BME280;56457;52.190;4.440;2023-07-31T00:22:37;101142.56;;;17.52;100.00
69318;BME280;56457;52.190;4.440;2023-07-31T00:23:37;101140.66;;;17.55;100.00
69318;BME280;56457;52.190;4.440;2023-07-31T00:24:38;101138.94;;;17.54;100.00
69318;BME280;56457;52.190;4.440;2023-07-31T00:25:38;101142.38;;;17.58;100.00
69318;BME280;56457;52.190;4.440;2023-07-31T00:26:38;101129.91;;;17.60;100.00
69318;BME280;56457;52.190;4.440;2023-07-31T00:27:39;101130.97;;;17.54;100.00
69318;BME280;56457;52.190;4.440;2023-07-31T00:28:39;101134.63;;;17.50;100.00
69318;BME280;56457;52.190;4.440;2023-07-31T00:29:39;101143.50;;;17.49;100.00
69318;BME280;56457;52.190;4.440;2023-07-31T00:30:40;101131.91;;;17.53;100.00
69318;BME280;56457;52.190;4.440;2023-07-31T00:31:40;101141.72;;;17.49;100.00
69318;BME280;56457;52.190;4.440;2023-07-31T00:32:40;101134.63;;;17.50;100.00
69318;BME280;56457;52.190;4.440;2023-07-31T00:33:40;101131.16;;;17.48;100.00
69318;BME280;56457;52.190;4.440;2023-07-31T00:34:41;101126.66;;;17.52;100.00
69318;BME280;56457;52.190;4.440;2023-07-31T00:35:41;101130.97;;;17.54;100.00
69318;BME280;56457;52.190;4.440;2023-07-31T00:36:41;101124.81;;;17.54;100.00
69318;BME280;56457;52.190;4.440;2023-07-31T00:37:41;101124.81;;;17.54;100.00
69318;BME280;56457;52.190;4.440;2023-07-31T00:38:42;101115.59;;;17.65;100.00
69318;BME280;56457;52.190;4.440;2023-07-31T00:39:42;101120.03;;;17.63;100.00
69318;BME280;56457;52.190;4.440;2023-07-31T00:40:42;101121.88;;;17.61;100.00
69318;BME280;56457;52.190;4.440;2023-07-31T00:41:42;101118.22;;;17.65;100.00
69318;BME280;56457;52.190;4.440;2023-07-31T00:42:43;101117.31;;;17.66;100.00
69318;BME280;56457;52.190;4.440;2023-07-31T00:43:43;101135.75;;;17.69;100.00
69318;BME280;56457;52.190;4.440;2023-07-31T00:44:43;101127.13;;;17.64;100.00
69318;BME280;56457;52.190;4.440;2023-07-31T00:45:44;101111.00;;;17.70;100.00
69318;BME280;56457;52.190;4.440;2023-07-31T00:46:44;101120.03;;;17.65;100.00
69318;BME280;56457;52.190;4.440;2023-07-31T00:47:44;101119.97;;;17.66;100.00
69318;BME280;56457;52.190;4.440;2023-07-31T00:48:45;101122.69;;;17.63;100.00
69318;BME280;56457;52.190;4.440;2023-07-31T00:49:45;101119.91;;;17.68;100.00
69318;BME280;56457;52.190;4.440;2023-07-31T00:50:45;101118.06;;;17.71;100.00
69318;BME280;56457;52.190;4.440;2023-07-31T00:51:46;101108.19;;;17.75;100.00
69318;BME280;56457;52.190;4.440;2023-07-31T00:52:46;101117.09;;;17.74;100.00
69318;BME280;56457;52.190;4.440;2023-07-31T00:53:47;101112.44;;;17.81;100.00
69318;BME280;56457;52.190;4.440;2023-07-31T00:54:48;101112.50;;;17.79;100.00
69318;BME280;56457;52.190;4.440;2023-07-31T00:55:48;101122.19;;;17.80;100.00
69318;BME280;56457;52.190;4.440;2023-07-31T00:56:49;101108.00;;;17.81;100.00
69318;BME280;56457;52.190;4.440;2023-07-31T00:57:51;101104.41;;;17.82;100.00
69318;BME280;56457;52.190;4.440;2023-07-31T00:58:52;101101.81;;;17.81;100.00
69318;BME280;56457;52.190;4.440;2023-07-31T00:59:53;101104.47;;;17.81;100.00
69318;BME280;56457;52.190;4.440;2023-07-31T01:00:53;101117.81;;;17.79;100.00
69318;BME280;56457;52.190;4.440;2023-07-31T01:01:53;101116.13;;;17.77;100.00
69318;BME280;56457;52.190;4.440;2023-07-31T01:02:54;101112.44;;;17.81;100.00
69318;BME280;56457;52.190;4.440;2023-07-31T01:03:54;101117.16;;;17.71;100.00
69318;BME280;56457;52.190;4.440;2023-07-31T01:04:55;101102.94;;;17.73;100.00
69318;BME280;56457;52.190;4.440;2023-07-31T01:06:15;101109.22;;;17.69;100.00
69318;BME280;56457;52.190;4.440;2023-07-31T01:07:31;101111.28;;;17.61;100.00
69318;BME280;56457;52.190;4.440;2023-07-31T01:08:39;101112.00;;;17.66;100.00
69318;BME280;56457;52.190;4.440;2023-07-31T01:10:54;101102.56;;;17.58;100.00
69318;BME280;56457;52.190;4.440;2023-07-31T01:11:57;101105.78;;;17.67;100.00
69318;BME280;56457;52.190;4.440;2023-07-31T01:12:57;101111.88;;;17.69;100.00
69318;BME280;56457;52.190;4.440;2023-07-31T01:13:58;101107.44;;;17.70;100.00
69318;BME280;56457;52.190;4.440;2023-07-31T01:15:02;101104.78;;;17.71;100.00
69318;BME280;56457;52.190;4.440;2023-07-31T01:16:03;101102.94;;;17.73;100.00
69318;BME280;56457;52.190;4.440;2023-07-31T01:17:03;101104.75;;;17.73;100.00
69318;BME280;56457;52.190;4.440;2023-07-31T01:18:03;101099.38;;;17.74;100.00
69318;BME280;56457;52.190;4.440;2023-07-31T01:19:04;101107.25;;;17.78;100.00
69318;BME280;56457;52.190;4.440;2023-07-31T01:20:10;101090.28;;;17.82;100.00
69318;BME280;56457;52.190;4.440;2023-07-31T01:22:48;101090.91;;;17.90;100.00
69318;BME280;56457;52.190;4.440;2023-07-31T01:26:23;101091.78;;;17.90;100.00
69318;BME280;56457;52.190;4.440;2023-07-31T01:27:26;101084.47;;;17.97;100.00
69318;BME280;56457;52.190;4.440;2023-07-31T01:29:43;101077.31;;;17.99;100.00
69318;BME280;56457;52.190;4.440;2023-07-31T01:30:44;101066.84;;;17.94;100.00
69318;BME280;56457;52.190;4.440;2023-07-31T01:31:46;101061.72;;;17.90;100.00
69318;BME280;56457;52.190;4.440;2023-07-31T01:32:48;101063.13;;;18.00;100.00
69318;BME280;56457;52.190;4.440;2023-07-31T01:33:50;101057.78;;;18.01;100.00
69318;BME280;56457;52.190;4.440;2023-07-31T01:34:51;101072.94;;;17.98;100.00
69318;BME280;56457;52.190;4.440;2023-07-31T01:35:52;101062.41;;;17.95;100.00
69318;BME280;56457;52.190;4.440;2023-07-31T01:36:52;101058.66;;;18.00;100.00
69318;BME280;56457;52.190;4.440;2023-07-31T01:37:52;101061.97;;;18.07;100.00
69318;BME280;56457;52.190;4.440;2023-07-31T01:39:00;101058.41;;;18.08;100.00
69318;BME280;56457;52.190;4.440;2023-07-31T01:40:00;101063.66;;;18.10;100.00
69318;BME280;56457;52.190;4.440;2023-07-31T01:41:01;101056.63;;;18.09;100.00
69318;BME280;56457;52.190;4.440;2023-07-31T01:42:01;101047.91;;;18.05;100.00
69318;BME280;56457;52.190;4.440;2023-07-31T01:43:01;101044.88;;;18.16;100.00
69318;BME280;56457;52.190;4.440;2023-07-31T01:44:02;101037.00;;;18.13;100.00
69318;BME280;56457;52.190;4.440;2023-07-31T01:45:02;101043.00;;;18.18;100.00
69318;BME280;56457;52.190;4.440;2023-07-31T01:46:02;101037.59;;;18.21;100.00
69318;BME280;56457;52.190;4.440;2023-07-31T01:47:03;101028.88;;;18.17;100.00
69318;BME280;56457;52.190;4.440;2023-07-31T01:48:03;101027.13;;;18.16;100.00
69318;BME280;56457;52.190;4.440;2023-07-31T01:49:05;101027.94;;;18.18;100.00
69318;BME280;56457;52.190;4.440;2023-07-31T01:50:06;101026.13;;;18.20;100.00
69318;BME280;56457;52.190;4.440;2023-07-31T01:51:06;101022.75;;;18.15;100.00
69318;BME280;56457;52.190;4.440;2023-07-31T01:52:07;101031.38;;;18.22;100.00
69318;BME280;56457;52.190;4.440;2023-07-31T01:53:07;101031.44;;;18.20;100.00
69318;BME280;56457;52.190;4.440;2023-07-31T01:54:07;101030.59;;;18.18;100.00
69318;BME280;56457;52.190;4.440;2023-07-31T01:55:08;101014.78;;;18.15;100.00
69318;BME280;56457;52.190;4.440;2023-07-31T01:56:08;101018.31;;;18.16;100.00
69318;BME280;56457;52.190;4.440;2023-07-31T01:57:08;101014.09;;;18.10;100.00
69318;BME280;56457;52.190;4.440;2023-07-31T01:58:09;101011.31;;;18.13;100.00
69318;BME280;56457;52.190;4.440;2023-07-31T01:59:09;101004.19;;;18.15;100.00
69318;BME280;56457;52.190;4.440;2023-07-31T02:00:10;100999.56;;;18.20;100.00
69318;BME280;56457;52.190;4.440;2023-07-31T02:01:10;101000.13;;;18.28;100.00
69318;BME280;56457;52.190;4.440;2023-07-31T02:02:10;101006.09;;;18.35;100.00
69318;BME280;56457;52.190;4.440;2023-07-31T02:03:10;100985.84;;;18.33;100.00
69318;BME280;56457;52.190;4.440;2023-07-31T02:04:11;100997.34;;;18.32;100.00
69318;BME280;56457;52.190;4.440;2023-07-31T02:05:11;100989.69;;;18.24;100.00
69318;BME280;56457;52.190;4.440;2023-07-31T02:06:11;100991.38;;;18.26;100.00
69318;BME280;56457;52.190;4.440;2023-07-31T02:07:11;100983.00;;;18.14;100.00
69318;BME280;56457;52.190;4.440;2023-07-31T02:08:12;100994.34;;;18.17;100.00
69318;BME280;56457;52.190;4.440;2023-07-31T02:09:12;100992.94;;;18.07;100.00
69318;BME280;56457;52.190;4.440;2023-07-31T02:10:12;100981.44;;;18.08;100.00
69318;BME280;56457;52.190;4.440;2023-07-31T02:11:13;100989.03;;;18.17;100.00
69318;BME280;56457;52.190;4.440;2023-07-31T02:12:13;100979.28;;;18.18;100.00
69318;BME280;56457;52.190;4.440;2023-07-31T02:13:14;100994.47;;;18.14;100.00
69318;BME280;56457;52.190;4.440;2023-07-31T02:14:14;100981.38;;;18.10;100.00
69318;BME280;56457;52.190;4.440;2023-07-31T02:15:15;100987.38;;;18.15;100.00
69318;BME280;56457;52.190;4.440;2023-07-31T02:16:15;100991.84;;;18.13;100.00
69318;BME280;56457;52.190;4.440;2023-07-31T02:17:15;100998.88;;;18.15;100.00
69318;BME280;56457;52.190;4.440;2023-07-31T02:18:16;100994.47;;;18.14;100.00
69318;BME280;56457;52.190;4.440;2023-07-31T02:19:16;100986.31;;;18.19;100.00
69318;BME280;56457;52.190;4.440;2023-07-31T02:20:16;100987.16;;;18.21;100.00
69318;BME280;56457;52.190;4.440;2023-07-31T02:21:16;100991.31;;;18.28;100.00
69318;BME280;56457;52.190;4.440;2023-07-31T02:22:17;100978.13;;;18.25;100.00
69318;BME280;56457;52.190;4.440;2023-07-31T02:23:18;100972.09;;;18.21;100.00
69318;BME280;56457;52.190;4.440;2023-07-31T02:24:18;100985.44;;;18.20;100.00
69318;BME280;56457;52.190;4.440;2023-07-31T02:25:19;100972.72;;;18.28;100.00
69318;BME280;56457;52.190;4.440;2023-07-31T02:26:19;100980.06;;;18.21;100.00
69318;BME280;56457;52.190;4.440;2023-07-31T02:27:19;100981.06;;;18.17;100.00
69318;BME280;56457;52.190;4.440;2023-07-31T02:28:24;100978.25;;;18.22;100.00
69318;BME280;56457;52.190;4.440;2023-07-31T02:29:24;100979.00;;;18.25;100.00
69318;BME280;56457;52.190;4.440;2023-07-31T02:30:24;100972.78;;;18.26;100.00
69318;BME280;56457;52.190;4.440;2023-07-31T02:31:25;100973.53;;;18.30;100.00
69318;BME280;56457;52.190;4.440;2023-07-31T02:32:25;100963.88;;;18.27;100.00
69318;BME280;56457;52.190;4.440;2023-07-31T02:33:25;100977.03;;;18.30;100.00
69318;BME280;56457;52.190;4.440;2023-07-31T02:34:25;100968.34;;;18.27;100.00
69318;BME280;56457;52.190;4.440;2023-07-31T02:35:26;100971.78;;;18.29;100.00
69318;BME280;56457;52.190;4.440;2023-07-31T02:36:26;100963.75;;;18.30;100.00
69318;BME280;56457;52.190;4.440;2023-07-31T02:37:27;100962.03;;;18.29;100.00
69318;BME280;56457;52.190;4.440;2023-07-31T02:38:28;100963.88;;;18.27;100.00
69318;BME280;56457;52.190;4.440;2023-07-31T02:39:29;100964.81;;;18.26;100.00
69318;BME280;56457;52.190;4.440;2023-07-31T02:40:29;100970.16;;;18.25;100.00
69318;BME280;56457;52.190;4.440;2023-07-31T02:41:29;100964.06;;;18.23;100.00
69318;BME280;56457;52.190;4.440;2023-07-31T02:42:30;100968.38;;;18.25;100.00
69318;BME280;56457;52.190;4.440;2023-07-31T02:43:30;100968.38;;;18.25;100.00
69318;BME280;56457;52.190;4.440;2023-07-31T02:44:30;100969.13;;;18.29;100.00
69318;BME280;56457;52.190;4.440;2023-07-31T02:45:31;100959.28;;;18.33;100.00
69318;BME280;56457;52.190;4.440;2023-07-31T02:46:31;100958.34;;;18.34;100.00
69318;BME280;56457;52.190;4.440;2023-07-31T02:47:31;100945.06;;;18.34;100.00
69318;BME280;56457;52.190;4.440;2023-07-31T02:48:31;100953.91;;;18.34;100.00
69318;BME280;56457;52.190;4.440;2023-07-31T02:49:32;100935.25;;;18.36;100.00
69318;BME280;56457;52.190;4.440;2023-07-31T02:50:32;100939.13;;;18.27;100.00
69318;BME280;56457;52.190;4.440;2023-07-31T02:51:33;100948.81;;;18.28;100.00
69318;BME280;56457;52.190;4.440;2023-07-31T02:52:33;100941.59;;;18.32;100.00
69318;BME280;56457;52.190;4.440;2023-07-31T02:53:33;100941.47;;;18.35;100.00
69318;BME280;56457;52.190;4.440;2023-07-31T02:54:33;100946.84;;;18.33;100.00
69318;BME280;56457;52.190;4.440;2023-07-31T02:55:34;100939.69;;;18.35;100.00
69318;BME280;56457;52.190;4.440;2023-07-31T02:56:34;100949.44;;;18.35;100.00
69318;BME280;56457;52.190;4.440;2023-07-31T02:57:34;100932.81;;;18.29;100.00
69318;BME280;56457;52.190;4.440;2023-07-31T02:58:34;100941.19;;;18.19;100.00
69318;BME280;56457;52.190;4.440;2023-07-31T02:59:35;100943.09;;;18.15;100.00
69318;BME280;56457;52.190;4.440;2023-07-31T03:00:35;100944.69;;;18.19;100.00
69318;BME280;56457;52.190;4.440;2023-07-31T03:01:35;100939.22;;;18.24;100.00
69318;BME280;56457;52.190;4.440;2023-07-31T03:02:36;100943.81;;;18.20;100.00
69318;BME280;56457;52.190;4.440;2023-07-31T03:03:36;100939.34;;;18.21;100.00
69318;BME280;56457;52.190;4.440;2023-07-31T03:04:36;100947.31;;;18.21;100.00
69318;BME280;56457;52.190;4.440;2023-07-31T03:05:37;100939.16;;;18.25;100.00
69318;BME280;56457;52.190;4.440;2023-07-31T03:06:37;100927.56;;;18.28;100.00
69318;BME280;56457;52.190;4.440;2023-07-31T03:07:38;100937.34;;;18.27;100.00
69318;BME280;56457;52.190;4.440;2023-07-31T03:08:38;100939.00;;;18.30;100.00
69318;BME280;56457;52.190;4.440;2023-07-31T03:09:38;100925.88;;;18.25;100.00
69318;BME280;56457;52.190;4.440;2023-07-31T03:10:38;100930.09;;;18.31;100.00
69318;BME280;56457;52.190;4.440;2023-07-31T03:11:39;100938.28;;;18.25;100.00
69318;BME280;56457;52.190;4.440;2023-07-31T03:12:40;100928.44;;;18.28;100.00
69318;BME280;56457;52.190;4.440;2023-07-31T03:13:40;100920.63;;;18.24;100.00
69318;BME280;56457;52.190;4.440;2023-07-31T03:14:40;100933.97;;;18.22;100.00
69318;BME280;56457;52.190;4.440;2023-07-31T03:15:43;100939.84;;;18.30;100.00
69318;BME280;56457;52.190;4.440;2023-07-31T03:16:44;100929.13;;;18.34;100.00
69318;BME280;56457;52.190;4.440;2023-07-31T03:17:44;100928.06;;;18.38;100.00
69318;BME280;56457;52.190;4.440;2023-07-31T03:18:44;100936.41;;;18.28;100.00
69318;BME280;56457;52.190;4.440;2023-07-31T03:19:45;100935.53;;;18.28;100.00
69318;BME280;56457;52.190;4.440;2023-07-31T03:20:45;100939.91;;;18.29;100.00
69318;BME280;56457;52.190;4.440;2023-07-31T03:21:45;100941.00;;;18.23;100.00
69318;BME280;56457;52.190;4.440;2023-07-31T03:22:45;100939.13;;;18.27;100.00
69318;BME280;56457;52.190;4.440;2023-07-31T03:23:46;100947.97;;;18.27;100.00
69318;BME280;56457;52.190;4.440;2023-07-31T03:24:46;100937.63;;;18.20;100.00
69318;BME280;56457;52.190;4.440;2023-07-31T03:26:02;100945.06;;;18.10;100.00
69318;BME280;56457;52.190;4.440;2023-07-31T03:27:03;100949.59;;;18.07;100.00
69318;BME280;56457;52.190;4.440;2023-07-31T03:28:04;100942.56;;;18.06;100.00
69318;BME280;56457;52.190;4.440;2023-07-31T03:29:04;100942.50;;;18.07;100.00
69318;BME280;56457;52.190;4.440;2023-07-31T03:30:04;100940.63;;;18.11;100.00
69318;BME280;56457;52.190;4.440;2023-07-31T03:31:05;100943.28;;;18.11;100.00
69318;BME280;56457;52.190;4.440;2023-07-31T03:32:05;100951.13;;;18.14;100.00
69318;BME280;56457;52.190;4.440;2023-07-31T03:33:06;100948.00;;;18.02;100.00
69318;BME280;56457;52.190;4.440;2023-07-31T03:34:06;100942.91;;;17.96;100.00
69318;BME280;56457;52.190;4.440;2023-07-31T03:35:06;100949.31;;;17.91;100.00
69318;BME280;56457;52.190;4.440;2023-07-31T03:36:06;100954.69;;;17.89;100.00
69318;BME280;56457;52.190;4.440;2023-07-31T03:37:07;100961.66;;;17.92;100.00
69318;BME280;56457;52.190;4.440;2023-07-31T03:38:09;100943.72;;;17.98;100.00
69318;BME280;56457;52.190;4.440;2023-07-31T03:39:09;100942.84;;;17.98;100.00
69318;BME280;56457;52.190;4.440;2023-07-31T03:40:10;100930.63;;;17.94;100.00
69318;BME280;56457;52.190;4.440;2023-07-31T03:41:10;100933.03;;;18.00;100.00
69318;BME280;56457;52.190;4.440;2023-07-31T03:42:10;100938.34;;;18.00;100.00
69318;BME280;56457;52.190;4.440;2023-07-31T03:43:11;100926.94;;;17.98;100.00
69318;BME280;56457;52.190;4.440;2023-07-31T03:44:11;100934.09;;;17.96;100.00
69318;BME280;56457;52.190;4.440;2023-07-31T03:45:12;100932.09;;;18.01;100.00
69318;BME280;56457;52.190;4.440;2023-07-31T03:46:12;100932.25;;;17.98;100.00
69318;BME280;56457;52.190;4.440;2023-07-31T03:47:13;100920.06;;;17.92;100.00
69318;BME280;56457;52.190;4.440;2023-07-31T03:48:15;100926.13;;;17.96;100.00
69318;BME280;56457;52.190;4.440;2023-07-31T03:49:16;100926.13;;;17.96;100.00
69318;BME280;56457;52.190;4.440;2023-07-31T03:50:16;100925.28;;;17.95;100.00
69318;BME280;56457;52.190;4.440;2023-07-31T03:51:17;100921.16;;;17.87;100.00
69318;BME280;56457;52.190;4.440;2023-07-31T03:52:17;100921.06;;;17.90;100.00
69318;BME280;56457;52.190;4.440;2023-07-31T03:53:17;100925.31;;;17.94;100.00
69318;BME280;56457;52.190;4.440;2023-07-31T03:54:18;100928.78;;;17.96;100.00
69318;BME280;56457;52.190;4.440;2023-07-31T03:55:18;100926.00;;;17.99;100.00
69318;BME280;56457;52.190;4.440;2023-07-31T03:56:18;100929.03;;;17.88;100.00
69318;BME280;56457;52.190;4.440;2023-07-31T03:57:19;100931.91;;;17.82;100.00
69318;BME280;56457;52.190;4.440;2023-07-31T03:58:19;100925.22;;;17.72;100.00
69318;BME280;56457;52.190;4.440;2023-07-31T03:59:19;100935.69;;;17.77;100.00
69318;BME280;56457;52.190;4.440;2023-07-31T04:00:19;100924.38;;;17.71;100.00
69318;BME280;56457;52.190;4.440;2023-07-31T04:01:20;100934.91;;;17.73;100.00
69318;BME280;56457;52.190;4.440;2023-07-31T04:02:21;100936.75;;;17.71;100.00
69318;BME280;56457;52.190;4.440;2023-07-31T04:03:21;100948.13;;;17.74;100.00
69318;BME280;56457;52.190;4.440;2023-07-31T04:04:21;100944.50;;;17.77;100.00
69318;BME280;56457;52.190;4.440;2023-07-31T04:05:22;100930.19;;;17.81;100.00
69318;BME280;56457;52.190;4.440;2023-07-31T04:06:22;100932.75;;;17.84;100.00
69318;BME280;56457;52.190;4.440;2023-07-31T04:07:22;100932.81;;;17.83;100.00
69318;BME280;56457;52.190;4.440;2023-07-31T04:08:23;100930.31;;;17.78;100.00
69318;BME280;56457;52.190;4.440;2023-07-31T04:09:23;100932.19;;;17.74;100.00
69318;BME280;56457;52.190;4.440;2023-07-31T04:10:23;100932.31;;;17.70;100.00
69318;BME280;56457;52.190;4.440;2023-07-31T04:11:24;100929.16;;;17.60;100.00
69318;BME280;56457;52.190;4.440;2023-07-31T04:12:24;100930.78;;;17.64;100.00
69318;BME280;56457;52.190;4.440;2023-07-31T04:13:24;100931.69;;;17.63;100.00
69318;BME280;56457;52.190;4.440;2023-07-31T04:14:27;100930.38;;;17.50;100.00
69318;BME280;56457;52.190;4.440;2023-07-31T04:15:27;100937.19;;;17.59;100.00
69318;BME280;56457;52.190;4.440;2023-07-31T04:16:28;100928.28;;;17.60;100.00
69318;BME280;56457;52.190;4.440;2023-07-31T04:17:28;100934.69;;;17.54;100.00
69318;BME280;56457;52.190;4.440;2023-07-31T04:18:28;100929.66;;;17.46;100.00
69318;BME280;56457;52.190;4.440;2023-07-31T04:19:31;100927.94;;;17.44;100.00
69318;BME280;56457;52.190;4.440;2023-07-31T04:20:31;100927.00;;;17.46;100.00
69318;BME280;56457;52.190;4.440;2023-07-31T04:21:31;100930.28;;;17.53;100.00
69318;BME280;56457;52.190;4.440;2023-07-31T04:22:31;100924.06;;;17.54;100.00
69318;BME280;56457;52.190;4.440;2023-07-31T04:23:32;100926.00;;;17.49;100.00
69318;BME280;56457;52.190;4.440;2023-07-31T04:24:32;100924.50;;;17.42;100.00
69318;BME280;56457;52.190;4.440;2023-07-31T04:25:32;100918.97;;;17.48;100.00
69318;BME280;56457;52.190;4.440;2023-07-31T04:26:35;100919.84;;;17.48;100.00
69318;BME280;56457;52.190;4.440;2023-07-31T04:27:35;100919.97;;;17.45;100.00
69318;BME280;56457;52.190;4.440;2023-07-31T04:28:35;100923.50;;;17.44;100.00
69318;BME280;56457;52.190;4.440;2023-07-31T04:29:35;100925.50;;;17.38;100.00
69318;BME280;56457;52.190;4.440;2023-07-31T04:30:36;100922.75;;;17.41;100.00
69318;BME280;56457;52.190;4.440;2023-07-31T04:31:36;100929.78;;;17.42;100.00
69318;BME280;56457;52.190;4.440;2023-07-31T04:32:36;100926.22;;;17.43;100.00
69318;BME280;56457;52.190;4.440;2023-07-31T04:33:37;100918.41;;;17.38;100.00
69318;BME280;56457;52.190;4.440;2023-07-31T04:34:37;100917.41;;;17.42;100.00
69318;BME280;56457;52.190;4.440;2023-07-31T04:35:37;100927.41;;;17.34;100.00
69318;BME280;56457;52.190;4.440;2023-07-31T04:36:37;100916.53;;;17.42;100.00
69318;BME280;56457;52.190;4.440;2023-07-31T04:37:38;100910.53;;;17.37;100.00
69318;BME280;56457;52.190;4.440;2023-07-31T04:38:38;100913.97;;;17.39;100.00
69318;BME280;56457;52.190;4.440;2023-07-31T04:39:39;100911.22;;;17.42;100.00
69318;BME280;56457;52.190;4.440;2023-07-31T04:40:39;100906.78;;;17.42;100.00
69318;BME280;56457;52.190;4.440;2023-07-31T04:41:40;100914.88;;;17.39;100.00
69318;BME280;56457;52.190;4.440;2023-07-31T04:42:40;100905.28;;;17.35;100.00
69318;BME280;56457;52.190;4.440;2023-07-31T04:43:40;100919.50;;;17.33;100.00
69318;BME280;56457;52.190;4.440;2023-07-31T04:44:41;100911.81;;;17.25;100.00
69318;BME280;56457;52.190;4.440;2023-07-31T04:45:47;100900.13;;;17.31;100.00
69318;BME280;56457;52.190;4.440;2023-07-31T04:46:50;100909.88;;;17.30;100.00
69318;BME280;56457;52.190;4.440;2023-07-31T04:47:50;100917.97;;;17.26;100.00
69318;BME280;56457;52.190;4.440;2023-07-31T04:48:51;100922.19;;;17.31;100.00
69318;BME280;56457;52.190;4.440;2023-07-31T04:49:51;100917.75;;;17.32;100.00
69318;BME280;56457;52.190;4.440;2023-07-31T04:50:51;100923.72;;;17.38;100.00
69318;BME280;56457;52.190;4.440;2023-07-31T04:51:52;100915.09;;;17.33;100.00
69318;BME280;56457;52.190;4.440;2023-07-31T04:52:52;100923.06;;;17.32;100.00
69318;BME280;56457;52.190;4.440;2023-07-31T04:53:52;100917.69;;;17.35;100.00
69318;BME280;56457;52.190;4.440;2023-07-31T04:54:52;100915.16;;;17.30;100.00
69318;BME280;56457;52.190;4.440;2023-07-31T04:55:53;100920.19;;;17.38;100.00
69318;BME280;56457;52.190;4.440;2023-07-31T04:56:53;100907.81;;;17.38;100.00
69318;BME280;56457;52.190;4.440;2023-07-31T04:57:53;100892.97;;;17.33;100.00
69318;BME280;56457;52.190;4.440;2023-07-31T04:58:54;100908.66;;;17.39;100.00
69318;BME280;56457;52.190;4.440;2023-07-31T04:59:54;100906.84;;;17.41;100.00
69318;BME280;56457;52.190;4.440;2023-07-31T05:00:55;100914.75;;;17.42;100.00
69318;BME280;56457;52.190;4.440;2023-07-31T05:01:55;100911.16;;;17.43;100.00
69318;BME280;56457;52.190;4.440;2023-07-31T05:02:55;100900.69;;;17.40;100.00
69318;BME280;56457;52.190;4.440;2023-07-31T05:03:56;100905.94;;;17.42;100.00
69318;BME280;56457;52.190;4.440;2023-07-31T05:04:56;100904.91;;;17.46;100.00
69318;BME280;56457;52.190;4.440;2023-07-31T05:05:57;100905.88;;;17.43;100.00
69318;BME280;56457;52.190;4.440;2023-07-31T05:06:58;100911.50;;;17.34;100.00
69318;BME280;56457;52.190;4.440;2023-07-31T05:07:58;100912.97;;;17.43;100.00
69318;BME280;56457;52.190;4.440;2023-07-31T05:08:58;100896.84;;;17.49;100.00
69318;BME280;56457;52.190;4.440;2023-07-31T05:09:58;100905.44;;;17.56;100.00
69318;BME280;56457;52.190;4.440;2023-07-31T05:10:59;100897.41;;;17.57;100.00
69318;BME280;56457;52.190;4.440;2023-07-31T05:11:59;100902.63;;;17.60;100.00
69318;BME280;56457;52.190;4.440;2023-07-31T05:12:59;100899.34;;;17.54;100.00
69318;BME280;56457;52.190;4.440;2023-07-31T05:13:59;100897.63;;;17.51;100.00
69318;BME280;56457;52.190;4.440;2023-07-31T05:15:00;100901.28;;;17.48;100.00
69318;BME280;56457;52.190;4.440;2023-07-31T05:16:00;100889.69;;;17.51;100.00
69318;BME280;56457;52.190;4.440;2023-07-31T05:17:00;100897.63;;;17.51;100.00
69318;BME280;56457;52.190;4.440;2023-07-31T05:18:01;100901.13;;;17.53;100.00
69318;BME280;56457;52.190;4.440;2023-07-31T05:19:01;100896.78;;;17.50;100.00
69318;BME280;56457;52.190;4.440;2023-07-31T05:20:01;100900.84;;;17.61;100.00